createdAt,value
2016-02-27T00:00:37.922Z,0
2016-02-27T00:01:38.001Z,0
2016-02-27T00:02:37.957Z,0
2016-02-27T00:03:37.945Z,0
2016-02-27T00:04:37.947Z,0
2016-02-27T00:05:37.949Z,0
2016-02-27T00:06:37.968Z,0
2016-02-27T00:07:37.971Z,0
2016-02-27T00:08:37.958Z,0
2016-02-27T00:09:37.976Z,0
2016-02-27T00:10:37.963Z,0
2016-02-27T00:11:37.965Z,0
2016-02-27T00:12:38.000Z,0
2016-02-27T00:13:37.987Z,0
2016-02-27T00:14:38.006Z,0
2016-02-27T00:16:14.508Z,0
2016-02-27T00:16:38.026Z,0
2016-02-27T00:17:37.998Z,0
2016-02-27T00:18:38.063Z,0
2016-02-27T00:19:38.019Z,0
2016-02-27T00:20:38.037Z,0
2016-02-27T00:21:38.040Z,0
2016-02-27T00:22:38.042Z,0
2016-02-27T00:23:38.045Z,0
2016-02-27T00:24:38.063Z,0
2016-02-27T00:25:38.050Z,0
2016-02-27T00:26:38.084Z,0
2016-02-27T00:27:38.055Z,0
2016-02-27T00:28:38.074Z,0
2016-02-27T00:29:38.092Z,0
2016-02-27T00:30:38.079Z,0
2016-02-27T00:31:38.083Z,0
2016-02-27T00:32:38.085Z,0
2016-02-27T00:33:37.978Z,0
2016-02-27T00:34:38.122Z,0
2016-02-27T00:35:38.094Z,0
2016-02-27T00:36:38.127Z,0
2016-02-27T00:37:38.146Z,0
2016-02-27T00:38:38.195Z,0
2016-02-27T00:39:37.979Z,0
2016-02-27T00:40:38.154Z,0
2016-02-27T00:41:38.140Z,0
2016-02-27T00:42:37.987Z,0
2016-02-27T00:43:38.177Z,0
2016-02-27T00:44:38.164Z,0
2016-02-27T00:48:17.672Z,0
2016-02-27T00:49:17.644Z,0
2016-02-27T00:50:17.678Z,0
2016-02-27T00:51:17.664Z,0
2016-02-27T00:52:17.542Z,0
2016-02-27T00:53:17.686Z,0
2016-02-27T00:54:17.720Z,0
2016-02-27T00:55:17.691Z,0
2016-02-27T00:56:17.725Z,0
2016-02-27T00:57:17.697Z,0
2016-02-27T00:58:17.730Z,0
2016-02-27T00:59:17.733Z,0
2016-02-27T01:00:17.783Z,0
2016-02-27T01:01:17.738Z,0
2016-02-27T01:02:17.741Z,0
2016-02-27T01:03:17.728Z,0
2016-02-27T01:04:17.747Z,0
2016-02-27T01:05:17.749Z,0
2016-02-27T01:06:17.768Z,0
2016-02-27T01:07:17.771Z,0
2016-02-27T01:08:17.758Z,0
2016-02-27T01:09:17.776Z,0
2016-02-27T01:10:17.763Z,0
2016-02-27T01:11:17.797Z,0
2016-02-27T01:12:17.784Z,0
2016-02-27T01:13:17.787Z,0
2016-02-27T01:14:17.804Z,0
2016-02-27T01:15:19.885Z,0
2016-02-27T01:16:17.810Z,0
2016-02-27T01:17:17.813Z,0
2016-02-27T01:18:17.815Z,0
2016-02-27T01:19:17.833Z,0
2016-02-27T01:20:17.852Z,0
2016-02-27T01:21:17.824Z,0
2016-02-27T01:22:17.826Z,0
2016-02-27T01:23:17.829Z,0
2016-02-27T01:24:17.848Z,0
2016-02-27T01:25:17.850Z,0
2016-02-27T01:26:17.868Z,0
2016-02-27T01:27:17.870Z,0
2016-02-27T01:28:17.873Z,0
2016-02-27T01:29:17.891Z,0
2016-02-27T01:30:17.894Z,0
2016-02-27T01:31:17.898Z,0
2016-02-27T01:32:17.884Z,0
2016-02-27T01:33:17.886Z,0
2016-02-27T01:34:17.906Z,0
2016-02-27T01:35:17.908Z,0
2016-02-27T01:36:17.911Z,0
2016-02-27T01:37:17.913Z,0
2016-02-27T01:38:17.932Z,0
2016-02-27T01:39:17.935Z,0
2016-02-27T01:40:17.937Z,0
2016-02-27T01:41:17.924Z,0
2016-02-27T01:42:17.943Z,0
2016-02-27T01:43:17.960Z,0
2016-02-27T01:44:17.948Z,0
2016-02-27T01:48:38.540Z,0
2016-02-27T01:48:51.196Z,0
2016-02-27T01:49:51.198Z,0
2016-02-27T01:50:51.201Z,0
2016-02-27T01:51:51.219Z,0
2016-02-27T01:52:51.222Z,0
2016-02-27T01:53:51.225Z,0
2016-02-27T01:54:51.227Z,0
2016-02-27T01:55:51.278Z,0
2016-02-27T01:56:51.248Z,0
2016-02-27T01:57:51.251Z,0
2016-02-27T01:58:51.270Z,0
2016-02-27T01:59:51.256Z,0
2016-02-27T02:00:51.259Z,0
2016-02-27T02:01:51.261Z,0
2016-02-27T02:02:51.280Z,0
2016-02-27T02:03:51.330Z,0
2016-02-27T02:04:51.145Z,0
2016-02-27T02:05:51.305Z,0
2016-02-27T02:06:51.291Z,0
2016-02-27T02:07:51.310Z,0
2016-02-27T02:08:51.296Z,0
2016-02-27T02:09:51.158Z,0
2016-02-27T02:10:51.161Z,0
2016-02-27T02:11:51.163Z,0
2016-02-27T02:12:51.323Z,0
2016-02-27T02:13:51.340Z,0
2016-02-27T02:14:51.344Z,0
2016-02-27T02:16:53.974Z,0
2016-02-27T02:17:06.662Z,0
2016-02-27T02:18:06.618Z,0
2016-02-27T02:19:06.620Z,0
2016-02-27T02:20:06.638Z,0
2016-02-27T02:21:06.640Z,0
2016-02-27T02:22:06.643Z,0
2016-02-27T02:23:06.647Z,0
2016-02-27T02:24:06.649Z,0
2016-02-27T02:25:06.668Z,0
2016-02-27T02:26:06.654Z,0
2016-02-27T02:27:06.657Z,0
2016-02-27T02:28:06.676Z,0
2016-02-27T02:29:06.678Z,0
2016-02-27T02:30:06.681Z,0
2016-02-27T02:31:06.684Z,0
2016-02-27T02:32:06.702Z,0
2016-02-27T02:33:06.705Z,0
2016-02-27T02:34:06.692Z,0
2016-02-27T02:35:06.695Z,0
2016-02-27T02:36:06.713Z,0
2016-02-27T02:37:06.731Z,0
2016-02-27T02:38:06.765Z,0
2016-02-27T02:39:06.736Z,0
2016-02-27T02:40:06.754Z,0
2016-02-27T02:41:06.741Z,0
2016-02-27T02:42:06.745Z,0
2016-02-27T02:43:06.747Z,0
2016-02-27T02:44:06.750Z,0
2016-02-27T02:45:06.768Z,0
2016-02-27T02:48:13.588Z,0
2016-02-27T02:49:13.591Z,0
2016-02-27T02:50:13.610Z,0
2016-02-27T02:51:13.644Z,0
2016-02-27T02:52:13.615Z,0
2016-02-27T02:53:13.634Z,0
2016-02-27T02:54:13.652Z,0
2016-02-27T02:55:13.654Z,0
2016-02-27T02:56:13.704Z,0
2016-02-27T02:57:13.644Z,0
2016-02-27T02:58:13.647Z,0
2016-02-27T02:59:13.650Z,0
2016-02-27T03:00:14.089Z,0
2016-02-27T03:01:13.671Z,0
2016-02-27T03:02:13.689Z,0
2016-02-27T03:03:13.692Z,0
2016-02-27T03:04:13.710Z,0
2016-02-27T03:05:13.681Z,0
2016-02-27T03:06:13.700Z,0
2016-02-27T03:07:13.702Z,0
2016-02-27T03:08:13.705Z,0
2016-02-27T03:09:13.692Z,0
2016-02-27T03:10:13.711Z,0
2016-02-27T03:11:13.713Z,0
2016-02-27T03:12:13.716Z,0
2016-02-27T03:13:13.735Z,0
2016-02-27T03:14:13.737Z,0
2016-02-27T03:17:00.355Z,0
2016-02-27T03:17:29.042Z,0
2016-02-27T03:18:29.060Z,0
2016-02-27T03:19:29.094Z,0
2016-02-27T03:20:29.049Z,0
2016-02-27T03:21:29.052Z,0
2016-02-27T03:22:29.071Z,0
2016-02-27T03:23:29.073Z,0
2016-02-27T03:24:29.076Z,0
2016-02-27T03:25:29.079Z,0
2016-02-27T03:26:29.082Z,0
2016-02-27T03:27:29.084Z,0
2016-02-27T03:28:29.087Z,0
2016-02-27T03:29:29.090Z,0
2016-02-27T03:30:29.108Z,0
2016-02-27T03:31:29.111Z,0
2016-02-27T03:32:29.129Z,0
2016-02-27T03:33:29.116Z,0
2016-02-27T03:34:29.119Z,0
2016-02-27T03:35:29.136Z,0
2016-02-27T03:36:29.140Z,0
2016-02-27T03:37:29.158Z,0
2016-02-27T03:38:29.145Z,0
2016-02-27T03:39:29.164Z,0
2016-02-27T03:40:29.197Z,0
2016-02-27T03:41:29.153Z,0
2016-02-27T03:42:29.155Z,0
2016-02-27T03:43:29.174Z,0
2016-02-27T03:44:29.177Z,0
2016-02-27T03:48:38.672Z,0
2016-02-27T03:49:18.441Z,0
2016-02-27T03:50:18.443Z,0
2016-02-27T03:51:18.445Z,0
2016-02-27T03:52:18.465Z,0
2016-02-27T03:53:18.467Z,0
2016-02-27T03:54:18.454Z,0
2016-02-27T03:55:18.473Z,0
2016-02-27T03:56:18.475Z,0
2016-02-27T03:57:18.478Z,0
2016-02-27T03:58:18.480Z,0
2016-02-27T03:59:18.483Z,0
2016-02-27T04:00:18.501Z,0
2016-02-27T04:01:18.504Z,0
2016-02-27T04:02:18.460Z,0
2016-02-27T04:03:18.509Z,0
2016-02-27T04:04:18.528Z,0
2016-02-27T04:05:18.514Z,0
2016-02-27T04:06:18.517Z,0
2016-02-27T04:07:18.535Z,0
2016-02-27T04:08:18.570Z,0
2016-02-27T04:09:18.542Z,0
2016-02-27T04:10:18.559Z,0
2016-02-27T04:11:18.547Z,0
2016-02-27T04:12:18.550Z,0
2016-02-27T04:13:18.552Z,0
2016-02-27T04:14:18.555Z,0
2016-02-27T04:16:26.091Z,0
2016-02-27T04:16:38.732Z,0
2016-02-27T04:17:38.781Z,0
2016-02-27T04:18:38.752Z,0
2016-02-27T04:19:38.772Z,0
2016-02-27T04:20:38.758Z,0
2016-02-27T04:21:38.777Z,0
2016-02-27T04:22:38.763Z,0
2016-02-27T04:23:38.782Z,0
2016-02-27T04:24:38.800Z,0
2016-02-27T04:25:38.804Z,0
2016-02-27T04:26:38.790Z,0
2016-02-27T04:27:38.793Z,0
2016-02-27T04:28:38.812Z,0
2016-02-27T04:29:38.814Z,0
2016-02-27T04:30:38.805Z,0
2016-02-27T04:31:38.810Z,0
2016-02-27T04:32:38.768Z,0
2016-02-27T04:33:38.774Z,0
2016-02-27T04:34:38.778Z,0
2016-02-27T04:35:38.761Z,0
2016-02-27T04:36:38.773Z,0
2016-02-27T04:37:38.599Z,0
2016-02-27T04:38:38.769Z,0
2016-02-27T04:39:38.766Z,0
2016-02-27T04:40:38.767Z,0
2016-02-27T04:41:38.784Z,0
2016-02-27T04:42:38.800Z,0
2016-02-27T04:43:38.802Z,0
2016-02-27T04:44:38.803Z,0
2016-02-27T04:48:38.982Z,0
2016-02-27T04:49:28.031Z,0
2016-02-27T04:50:28.033Z,0
2016-02-27T04:51:28.052Z,0
2016-02-27T04:52:28.069Z,0
2016-02-27T04:53:28.072Z,0
2016-02-27T04:54:28.090Z,0
2016-02-27T04:55:28.076Z,0
2016-02-27T04:56:28.064Z,0
2016-02-27T04:57:28.067Z,0
2016-02-27T04:58:27.913Z,0
2016-02-27T04:59:28.087Z,0
2016-02-27T05:00:28.105Z,0
2016-02-27T05:01:28.108Z,0
2016-02-27T05:02:28.112Z,0
2016-02-27T05:03:28.098Z,0
2016-02-27T05:04:28.117Z,0
2016-02-27T05:05:28.119Z,0
2016-02-27T05:06:28.122Z,0
2016-02-27T05:07:28.155Z,0
2016-02-27T05:08:28.143Z,0
2016-02-27T05:09:28.146Z,0
2016-02-27T05:10:28.149Z,0
2016-02-27T05:11:28.152Z,0
2016-02-27T05:12:28.154Z,0
2016-02-27T05:13:28.157Z,0
2016-02-27T05:14:28.206Z,0
2016-02-27T05:15:39.427Z,0
2016-02-27T05:16:28.196Z,0
2016-02-27T05:17:28.182Z,0
2016-02-27T05:18:28.186Z,0
2016-02-27T05:19:28.188Z,0
2016-02-27T05:20:28.191Z,0
2016-02-27T05:21:28.037Z,0
2016-02-27T05:22:28.196Z,0
2016-02-27T05:23:28.214Z,0
2016-02-27T05:24:28.217Z,0
2016-02-27T05:25:28.236Z,0
2016-02-27T05:26:28.239Z,0
2016-02-27T05:27:28.226Z,0
2016-02-27T05:28:28.212Z,0
2016-02-27T05:29:28.231Z,0
2016-02-27T05:30:28.234Z,0
2016-02-27T05:31:28.236Z,0
2016-02-27T05:32:28.333Z,0
2016-02-27T05:33:28.272Z,0
2016-02-27T05:34:28.292Z,0
2016-02-27T05:35:28.294Z,0
2016-02-27T05:36:28.266Z,0
2016-02-27T05:37:28.268Z,0
2016-02-27T05:38:28.286Z,0
2016-02-27T05:39:28.288Z,0
2016-02-27T05:40:28.291Z,0
2016-02-27T05:41:28.294Z,0
2016-02-27T05:42:28.297Z,0
2016-02-27T05:43:28.300Z,0
2016-02-27T05:44:28.302Z,0
2016-02-27T05:47:35.170Z,0
2016-02-27T05:48:35.157Z,0
2016-02-27T05:49:35.159Z,0
2016-02-27T05:50:35.163Z,0
2016-02-27T05:51:35.181Z,0
2016-02-27T05:52:35.184Z,0
2016-02-27T05:53:35.170Z,0
2016-02-27T05:54:35.235Z,0
2016-02-27T05:55:35.176Z,0
2016-02-27T05:56:35.194Z,0
2016-02-27T05:57:35.181Z,0
2016-02-27T05:58:35.200Z,0
2016-02-27T05:59:35.203Z,0
2016-02-27T06:00:35.220Z,0
2016-02-27T06:01:35.223Z,0
2016-02-27T06:02:35.242Z,0
2016-02-27T06:03:35.244Z,4
2016-02-27T06:04:35.231Z,4
2016-02-27T06:05:35.234Z,0
2016-02-27T06:06:35.236Z,4
2016-02-27T06:07:35.239Z,4
2016-02-27T06:08:35.257Z,4
2016-02-27T06:09:35.261Z,4
2016-02-27T06:10:35.278Z,4
2016-02-27T06:11:35.281Z,8
2016-02-27T06:12:35.283Z,8
2016-02-27T06:13:35.271Z,8
2016-02-27T06:14:35.289Z,8
2016-02-27T06:15:35.291Z,8
2016-02-27T06:16:35.294Z,12
2016-02-27T06:17:35.141Z,12
2016-02-27T06:18:35.316Z,16
2016-02-27T06:19:35.302Z,20
2016-02-27T06:20:35.352Z,20
2016-02-27T06:21:35.324Z,24
2016-02-27T06:22:35.326Z,24
2016-02-27T06:23:35.329Z,28
2016-02-27T06:24:35.347Z,32
2016-02-27T06:25:35.351Z,36
2016-02-27T06:26:35.368Z,40
2016-02-27T06:27:35.340Z,44
2016-02-27T06:28:35.343Z,48
2016-02-27T06:29:35.361Z,56
2016-02-27T06:30:35.364Z,60
2016-02-27T06:31:35.397Z,64
2016-02-27T06:32:35.384Z,68
2016-02-27T06:33:35.372Z,72
2016-02-27T06:34:35.375Z,84
2016-02-27T06:35:35.377Z,88
2016-02-27T06:36:35.395Z,96
2016-02-27T06:37:35.398Z,100
2016-02-27T06:38:35.400Z,108
2016-02-27T06:39:35.419Z,116
2016-02-27T06:40:35.421Z,120
2016-02-27T06:41:35.425Z,128
2016-02-27T06:42:35.427Z,136
2016-02-27T06:43:35.445Z,152
2016-02-27T06:44:35.432Z,164
2016-02-27T06:47:53.380Z,212
2016-02-27T06:48:53.383Z,228
2016-02-27T06:49:53.386Z,240
2016-02-27T06:50:53.389Z,256
2016-02-27T06:51:53.391Z,276
2016-02-27T06:52:53.394Z,288
2016-02-27T06:53:53.397Z,296
2016-02-27T06:54:53.399Z,300
2016-02-27T06:55:53.417Z,312
2016-02-27T06:56:53.420Z,324
2016-02-27T06:57:53.439Z,328
2016-02-27T06:58:53.425Z,336
2016-02-27T06:59:53.429Z,344
2016-02-27T07:00:53.478Z,356
2016-02-27T07:01:53.434Z,356
2016-02-27T07:02:53.453Z,360
2016-02-27T07:03:53.470Z,368
2016-02-27T07:04:53.458Z,380
2016-02-27T07:05:53.460Z,384
2016-02-27T07:06:53.463Z,392
2016-02-27T07:07:53.482Z,400
2016-02-27T07:08:53.469Z,408
2016-02-27T07:09:53.472Z,416
2016-02-27T07:10:53.474Z,424
2016-02-27T07:11:53.492Z,432
2016-02-27T07:12:53.494Z,444
2016-02-27T07:13:53.497Z,452
2016-02-27T07:14:53.500Z,460
2016-02-27T07:17:16.366Z,492
2016-02-27T07:17:29.022Z,496
2016-02-27T07:18:29.040Z,500
2016-02-27T07:19:29.043Z,512
2016-02-27T07:20:29.045Z,516
2016-02-27T07:21:29.048Z,528
2016-02-27T07:22:29.034Z,536
2016-02-27T07:23:29.053Z,536
2016-02-27T07:24:29.057Z,544
2016-02-27T07:25:28.902Z,548
2016-02-27T07:26:29.062Z,560
2016-02-27T07:27:29.064Z,568
2016-02-27T07:28:29.082Z,572
2016-02-27T07:29:29.115Z,580
2016-02-27T07:30:29.087Z,588
2016-02-27T07:31:29.090Z,596
2016-02-27T07:32:29.109Z,608
2016-02-27T07:33:29.096Z,612
2016-02-27T07:34:29.098Z,620
2016-02-27T07:35:29.117Z,624
2016-02-27T07:36:29.150Z,632
2016-02-27T07:37:29.169Z,636
2016-02-27T07:38:29.124Z,644
2016-02-27T07:39:29.127Z,652
2016-02-27T07:40:29.146Z,656
2016-02-27T07:41:29.133Z,664
2016-02-27T07:42:29.151Z,672
2016-02-27T07:43:28.997Z,680
2016-02-27T07:44:29.156Z,688
2016-02-27T07:45:29.158Z,692
2016-02-27T07:46:29.177Z,700
2016-02-27T07:47:29.196Z,708
2016-02-27T07:48:29.183Z,712
2016-02-27T07:49:29.233Z,720
2016-02-27T07:50:29.219Z,728
2016-02-27T07:51:29.207Z,744
2016-02-27T07:52:29.210Z,752
2016-02-27T07:53:29.196Z,756
2016-02-27T07:54:29.215Z,764
2016-02-27T07:55:29.217Z,768
2016-02-27T07:56:29.220Z,772
2016-02-27T07:57:29.129Z,776
2016-02-27T07:58:29.272Z,784
2016-02-27T07:59:29.243Z,792
2016-02-27T08:00:29.246Z,796
2016-02-27T08:01:29.249Z,804
2016-02-27T08:02:29.251Z,816
2016-02-27T08:03:29.270Z,844
2016-02-27T08:04:29.289Z,904
2016-02-27T08:05:29.292Z,1160
2016-02-27T08:06:29.294Z,2676
2016-02-27T08:07:29.140Z,4112
2016-02-27T08:08:29.315Z,4152
2016-02-27T08:09:29.317Z,4900
2016-02-27T08:10:29.320Z,5472
2016-02-27T08:11:29.322Z,5756
2016-02-27T08:12:29.341Z,5940
2016-02-27T08:13:29.359Z,5976
2016-02-27T08:14:29.361Z,6200
2016-02-27T08:19:21.266Z,6816
2016-02-27T08:19:33.922Z,6760
2016-02-27T08:20:33.941Z,6792
2016-02-27T08:21:33.960Z,6956
2016-02-27T08:22:33.947Z,7136
2016-02-27T08:23:33.965Z,7320
2016-02-27T08:24:33.982Z,7464
2016-02-27T08:25:33.986Z,7708
2016-02-27T08:26:34.004Z,7940
2016-02-27T08:27:34.007Z,8020
2016-02-27T08:28:34.040Z,8180
2016-02-27T08:29:34.043Z,8324
2016-02-27T08:30:34.045Z,8508
2016-02-27T08:31:34.065Z,8748
2016-02-27T08:32:34.082Z,8980
2016-02-27T08:33:34.085Z,9044
2016-02-27T08:34:34.103Z,9116
2016-02-27T08:35:34.122Z,9260
2016-02-27T08:36:34.125Z,9548
2016-02-27T08:37:34.143Z,9708
2016-02-27T08:38:34.162Z,9916
2016-02-27T08:39:34.179Z,9976
2016-02-27T08:40:34.198Z,9932
2016-02-27T08:41:34.201Z,10012
2016-02-27T08:42:34.219Z,10160
2016-02-27T08:43:34.222Z,10468
2016-02-27T08:44:34.272Z,10792
2016-02-27T08:46:36.886Z,11264
2016-02-27T08:46:49.542Z,11280
2016-02-27T08:47:49.544Z,11340
2016-02-27T08:48:49.578Z,11492
2016-02-27T08:49:49.596Z,11708
2016-02-27T08:50:49.600Z,11712
2016-02-27T08:51:49.618Z,12044
2016-02-27T08:52:49.636Z,12052
2016-02-27T08:53:49.655Z,11868
2016-02-27T08:54:49.641Z,9960
2016-02-27T08:55:49.660Z,7152
2016-02-27T08:56:49.679Z,5188
2016-02-27T08:57:49.696Z,5028
2016-02-27T08:58:49.715Z,5016
2016-02-27T08:59:49.732Z,4980
2016-02-27T09:00:49.735Z,4976
2016-02-27T09:01:49.754Z,4972
2016-02-27T09:02:49.757Z,4924
2016-02-27T09:03:49.791Z,4896
2016-02-27T09:04:49.809Z,4924
2016-02-27T09:05:49.828Z,4932
2016-02-27T09:06:49.845Z,4852
2016-02-27T09:07:49.848Z,5748
2016-02-27T09:08:49.851Z,9096
2016-02-27T09:09:49.853Z,12652
2016-02-27T09:10:49.872Z,14112
2016-02-27T09:11:49.890Z,14272
2016-02-27T09:12:49.909Z,14496
2016-02-27T09:13:49.928Z,14592
2016-02-27T09:14:49.945Z,14432
2016-02-27T09:17:03.828Z,14368
2016-02-27T09:17:16.485Z,14464
2016-02-27T09:18:16.363Z,14528
2016-02-27T09:19:16.365Z,14592
2016-02-27T09:20:16.524Z,14816
2016-02-27T09:21:16.527Z,14976
2016-02-27T09:22:16.544Z,14880
2016-02-27T09:23:16.563Z,15008
2016-02-27T09:24:16.597Z,14880
2016-02-27T09:25:16.584Z,15168
2016-02-27T09:26:16.603Z,15168
2016-02-27T09:27:16.621Z,14944
2016-02-27T09:28:16.654Z,14784
2016-02-27T09:29:16.627Z,14944
2016-02-27T09:30:16.660Z,15008
2016-02-27T09:31:16.679Z,14944
2016-02-27T09:32:16.681Z,15040
2016-02-27T09:33:16.731Z,14720
2016-02-27T09:34:16.701Z,14720
2016-02-27T09:35:16.720Z,14784
2016-02-27T09:36:16.739Z,14880
2016-02-27T09:37:16.757Z,14976
2016-02-27T09:38:16.854Z,15008
2016-02-27T09:39:16.778Z,14880
2016-02-27T09:40:16.797Z,14784
2016-02-27T09:41:16.831Z,14848
2016-02-27T09:42:16.833Z,14272
2016-02-27T09:43:16.867Z,12512
2016-02-27T09:44:16.854Z,7592
2016-02-27T09:48:37.458Z,2276
2016-02-27T09:48:50.177Z,2264
2016-02-27T09:49:50.133Z,2220
2016-02-27T09:50:50.152Z,2176
2016-02-27T09:51:50.154Z,2092
2016-02-27T09:52:50.172Z,2036
2016-02-27T09:53:50.174Z,1964
2016-02-27T09:54:50.194Z,1920
2016-02-27T09:55:50.197Z,1896
2016-02-27T09:56:50.199Z,1884
2016-02-27T09:57:50.218Z,1876
2016-02-27T09:58:50.236Z,1844
2016-02-27T09:59:50.238Z,1820
2016-02-27T10:00:50.101Z,1784
2016-02-27T10:01:50.274Z,1744
2016-02-27T10:02:50.262Z,1724
2016-02-27T10:03:50.109Z,1668
2016-02-27T10:04:50.267Z,1652
2016-02-27T10:05:50.521Z,1648
2016-02-27T10:06:50.288Z,1636
2016-02-27T10:07:50.306Z,1628
2016-02-27T10:08:50.294Z,1604
2016-02-27T10:09:50.312Z,1596
2016-02-27T10:10:50.315Z,1548
2016-02-27T10:11:50.317Z,1572
2016-02-27T10:12:50.320Z,1552
2016-02-27T10:13:50.339Z,1564
2016-02-27T10:14:50.356Z,1544
2016-02-27T10:19:44.792Z,1520
2016-02-27T10:19:57.448Z,1524
2016-02-27T10:20:57.451Z,1520
2016-02-27T10:21:57.453Z,1512
2016-02-27T10:22:57.472Z,1508
2016-02-27T10:23:57.490Z,1496
2016-02-27T10:24:57.493Z,1492
2016-02-27T10:25:57.527Z,1472
2016-02-27T10:26:57.499Z,1472
2016-02-27T10:27:57.501Z,1468
2016-02-27T10:28:57.504Z,1460
2016-02-27T10:29:57.507Z,1440
2016-02-27T10:30:57.524Z,1436
2016-02-27T10:31:57.543Z,1444
2016-02-27T10:32:57.546Z,1416
2016-02-27T10:33:57.532Z,1400
2016-02-27T10:34:57.551Z,1416
2016-02-27T10:35:57.554Z,1408
2016-02-27T10:36:57.556Z,1384
2016-02-27T10:37:57.621Z,1376
2016-02-27T10:38:57.578Z,1380
2016-02-27T10:39:57.580Z,1364
2016-02-27T10:40:57.583Z,1340
2016-02-27T10:41:57.601Z,1360
2016-02-27T10:42:57.604Z,1328
2016-02-27T10:43:57.622Z,1316
2016-02-27T10:44:57.625Z,1320
2016-02-27T10:46:17.833Z,1308
2016-02-27T10:46:57.614Z,1304
2016-02-27T10:47:57.633Z,1300
2016-02-27T10:48:57.636Z,1268
2016-02-27T10:49:57.654Z,1260
2016-02-27T10:50:57.641Z,1272
2016-02-27T10:51:57.659Z,1256
2016-02-27T10:52:57.661Z,1252
2016-02-27T10:53:57.680Z,1252
2016-02-27T10:54:57.699Z,1256
2016-02-27T10:55:57.686Z,1224
2016-02-27T10:56:57.689Z,1220
2016-02-27T10:57:57.691Z,1220
2016-02-27T10:58:57.710Z,1224
2016-02-27T10:59:57.713Z,1212
2016-02-27T11:00:57.730Z,1204
2016-02-27T11:01:57.733Z,1168
2016-02-27T11:02:57.735Z,1164
2016-02-27T11:03:57.738Z,1156
2016-02-27T11:04:57.757Z,1152
2016-02-27T11:05:57.759Z,1148
2016-02-27T11:06:57.778Z,1140
2016-02-27T11:07:57.765Z,1132
2016-02-27T11:08:57.784Z,1128
2016-02-27T11:09:57.770Z,1124
2016-02-27T11:10:57.789Z,1112
2016-02-27T11:11:57.791Z,1108
2016-02-27T11:12:57.809Z,1084
2016-02-27T11:13:57.797Z,1096
2016-02-27T11:14:57.815Z,1088
2016-02-27T11:16:18.039Z,1084
2016-02-27T11:16:57.851Z,1080
2016-02-27T11:17:57.823Z,1052
2016-02-27T11:18:57.856Z,1028
2016-02-27T11:19:57.891Z,1008
2016-02-27T11:20:57.862Z,1028
2016-02-27T11:21:57.850Z,1004
2016-02-27T11:22:57.884Z,996
2016-02-27T11:23:57.870Z,992
2016-02-27T11:24:57.889Z,996
2016-02-27T11:25:57.892Z,1008
2016-02-27T11:26:57.894Z,976
2016-02-27T11:27:57.897Z,984
2016-02-27T11:28:57.915Z,988
2016-02-27T11:29:57.919Z,972
2016-02-27T11:30:57.921Z,976
2016-02-27T11:31:57.924Z,960
2016-02-27T11:32:57.927Z,948
2016-02-27T11:33:57.928Z,944
2016-02-27T11:34:57.931Z,928
2016-02-27T11:35:57.949Z,916
2016-02-27T11:36:57.952Z,912
2016-02-27T11:37:57.955Z,916
2016-02-27T11:38:57.958Z,904
2016-02-27T11:39:57.976Z,900
2016-02-27T11:40:57.979Z,900
2016-02-27T11:41:57.997Z,884
2016-02-27T11:42:57.828Z,884
2016-02-27T11:43:58.003Z,896
2016-02-27T11:44:58.005Z,892
2016-02-27T11:47:20.873Z,876
2016-02-27T11:47:33.529Z,880
2016-02-27T11:48:33.562Z,872
2016-02-27T11:49:33.581Z,864
2016-02-27T11:50:33.536Z,860
2016-02-27T11:51:33.570Z,860
2016-02-27T11:52:33.558Z,868
2016-02-27T11:53:33.561Z,868
2016-02-27T11:54:33.564Z,864
2016-02-27T11:55:33.488Z,876
2016-02-27T11:56:33.600Z,868
2016-02-27T11:57:33.586Z,888
2016-02-27T11:58:33.621Z,876
2016-02-27T11:59:33.608Z,884
2016-02-27T12:00:33.626Z,876
2016-02-27T12:01:33.614Z,880
2016-02-27T12:02:33.632Z,884
2016-02-27T12:03:33.619Z,880
2016-02-27T12:04:33.668Z,852
2016-02-27T12:05:33.655Z,888
2016-02-27T12:06:33.658Z,880
2016-02-27T12:07:33.645Z,852
2016-02-27T12:08:33.710Z,860
2016-02-27T12:09:33.666Z,864
2016-02-27T12:10:33.669Z,856
2016-02-27T12:11:33.671Z,856
2016-02-27T12:12:33.690Z,840
2016-02-27T12:13:33.676Z,844
2016-02-27T12:14:33.711Z,848
2016-02-27T12:16:25.247Z,836
2016-02-27T12:16:37.919Z,828
2016-02-27T12:17:37.923Z,812
2016-02-27T12:18:37.940Z,804
2016-02-27T12:19:37.943Z,812
2016-02-27T12:20:37.930Z,812
2016-02-27T12:21:37.948Z,800
2016-02-27T12:22:37.951Z,804
2016-02-27T12:23:37.970Z,804
2016-02-27T12:24:37.956Z,800
2016-02-27T12:25:38.006Z,808
2016-02-27T12:26:37.962Z,800
2016-02-27T12:27:37.996Z,792
2016-02-27T12:28:37.967Z,780
2016-02-27T12:29:38.002Z,772
2016-02-27T12:30:37.988Z,776
2016-02-27T12:31:38.038Z,764
2016-02-27T12:32:37.994Z,776
2016-02-27T12:33:38.059Z,764
2016-02-27T12:34:38.030Z,748
2016-02-27T12:35:38.018Z,768
2016-02-27T12:36:38.036Z,760
2016-02-27T12:37:38.054Z,744
2016-02-27T12:38:38.041Z,728
2016-02-27T12:39:38.075Z,712
2016-02-27T12:40:38.046Z,704
2016-02-27T12:41:38.080Z,684
2016-02-27T12:42:38.068Z,672
2016-02-27T12:43:38.085Z,660
2016-02-27T12:44:38.073Z,656
2016-02-27T12:46:20.640Z,648
2016-02-27T12:46:38.093Z,648
2016-02-27T12:47:38.096Z,648
2016-02-27T12:48:37.959Z,644
2016-02-27T12:49:38.117Z,636
2016-02-27T12:50:38.104Z,632
2016-02-27T12:51:38.154Z,640
2016-02-27T12:52:38.126Z,628
2016-02-27T12:53:38.159Z,624
2016-02-27T12:54:38.147Z,620
2016-02-27T12:55:38.133Z,624
2016-02-27T12:56:38.152Z,616
2016-02-27T12:57:38.170Z,620
2016-02-27T12:58:38.205Z,620
2016-02-27T12:59:38.160Z,612
2016-02-27T13:00:38.178Z,612
2016-02-27T13:01:38.181Z,612
2016-02-27T13:02:38.215Z,608
2016-02-27T13:03:38.186Z,612
2016-02-27T13:04:38.204Z,608
2016-02-27T13:05:38.192Z,616
2016-02-27T13:06:38.210Z,612
2016-02-27T13:07:38.229Z,616
2016-02-27T13:08:38.216Z,620
2016-02-27T13:09:38.249Z,620
2016-02-27T13:10:38.283Z,616
2016-02-27T13:11:38.254Z,620
2016-02-27T13:12:38.257Z,620
2016-02-27T13:13:38.260Z,616
2016-02-27T13:14:38.263Z,624
2016-02-27T13:20:45.451Z,668
2016-02-27T13:21:45.454Z,712
2016-02-27T13:22:45.472Z,1180
2016-02-27T13:23:45.475Z,3884
2016-02-27T13:24:45.478Z,6832
2016-02-27T13:25:45.542Z,7856
2016-02-27T13:26:45.483Z,3728
2016-02-27T13:27:45.501Z,1932
2016-02-27T13:28:45.504Z,1972
2016-02-27T13:29:45.788Z,1604
2016-02-27T13:30:45.525Z,1548
2016-02-27T13:31:45.527Z,4632
2016-02-27T13:32:45.530Z,5736
2016-02-27T13:33:45.532Z,2532
2016-02-27T13:34:45.551Z,3488
2016-02-27T13:35:45.567Z,2992
2016-02-27T13:36:45.541Z,1328
2016-02-27T13:37:45.575Z,1228
2016-02-27T13:38:45.533Z,908
2016-02-27T13:39:45.538Z,1072
2016-02-27T13:40:45.513Z,1168
2016-02-27T13:41:45.510Z,2068
2016-02-27T13:42:45.524Z,2876
2016-02-27T13:43:45.506Z,1924
2016-02-27T13:44:45.534Z,1284
2016-02-27T13:47:19.473Z,1184
2016-02-27T13:47:32.129Z,1304
2016-02-27T13:48:32.145Z,1496
2016-02-27T13:49:32.177Z,1024
2016-02-27T13:50:32.162Z,892
2016-02-27T13:51:32.196Z,704
2016-02-27T13:52:32.197Z,652
2016-02-27T13:53:32.027Z,636
2016-02-27T13:54:32.169Z,616
2016-02-27T13:55:32.219Z,604
2016-02-27T13:56:32.190Z,588
2016-02-27T13:57:32.193Z,584
2016-02-27T13:58:32.196Z,576
2016-02-27T13:59:32.214Z,572
2016-02-27T14:00:32.217Z,560
2016-02-27T14:01:32.219Z,556
2016-02-27T14:02:32.270Z,552
2016-02-27T14:03:32.240Z,544
2016-02-27T14:04:32.243Z,548
2016-02-27T14:05:32.261Z,544
2016-02-27T14:06:32.264Z,540
2016-02-27T14:07:32.283Z,536
2016-02-27T14:08:32.269Z,528
2016-02-27T14:09:32.272Z,520
2016-02-27T14:10:32.290Z,524
2016-02-27T14:11:32.294Z,528
2016-02-27T14:12:32.296Z,524
2016-02-27T14:13:32.142Z,520
2016-02-27T14:14:32.316Z,516
2016-02-27T14:19:55.533Z,500
2016-02-27T14:20:08.205Z,500
2016-02-27T14:21:08.192Z,504
2016-02-27T14:22:08.195Z,500
2016-02-27T14:23:08.198Z,500
2016-02-27T14:24:08.200Z,500
2016-02-27T14:25:08.046Z,500
2016-02-27T14:26:08.221Z,496
2016-02-27T14:27:08.223Z,500
2016-02-27T14:28:08.275Z,492
2016-02-27T14:29:08.325Z,488
2016-02-27T14:30:08.250Z,484
2016-02-27T14:31:08.460Z,484
2016-02-27T14:32:08.385Z,484
2016-02-27T14:33:08.246Z,484
2016-02-27T14:34:08.265Z,480
2016-02-27T14:35:08.314Z,472
2016-02-27T14:36:08.301Z,476
2016-02-27T14:37:08.288Z,472
2016-02-27T14:38:08.307Z,468
2016-02-27T14:39:08.309Z,464
2016-02-27T14:40:08.281Z,456
2016-02-27T14:41:08.310Z,464
2016-02-27T14:42:08.484Z,464